createdAt,value
2023-04-28T00:01:21.081Z,3.74
2023-04-28T00:06:24.108Z,3.64
2023-04-28T00:11:27.031Z,3.55
2023-04-28T00:16:29.991Z,3.48
2023-04-28T00:21:33.058Z,3.43
2023-04-28T00:26:36.117Z,3.38
2023-04-28T00:31:39.130Z,3.29
2023-04-28T00:36:42.827Z,3.21
2023-04-28T00:41:45.930Z,3.15
2023-04-28T00:46:48.751Z,3.12
2023-04-28T00:51:51.881Z,3.15
2023-04-28T00:56:55.228Z,3.20
2023-04-28T01:01:59.925Z,3.23
2023-04-28T01:07:03.156Z,3.23
2023-04-28T01:12:06.638Z,3.18
2023-04-28T01:17:10.880Z,3.08
2023-04-28T01:22:16.254Z,3.00
2023-04-28T01:27:19.197Z,2.95
2023-04-28T01:32:22.401Z,2.87
2023-04-28T01:37:25.529Z,2.80
2023-04-28T01:42:28.531Z,2.72
2023-04-28T01:47:32.122Z,2.66
2023-04-28T01:52:35.187Z,2.61
2023-04-28T01:57:37.997Z,2.51
2023-04-28T02:02:41.493Z,2.44
2023-04-28T02:07:44.605Z,2.34
2023-04-28T02:12:47.624Z,2.28
2023-04-28T02:17:50.597Z,2.19
2023-04-28T02:22:53.537Z,2.15
2023-04-28T02:27:57.410Z,2.10
2023-04-28T02:33:00.574Z,2.05
2023-04-28T02:38:03.785Z,2.04
2023-04-28T02:43:06.754Z,2.00
2023-04-28T02:48:09.786Z,1.97
2023-04-28T02:53:13.226Z,1.97
2023-04-28T02:58:18.099Z,1.92
2023-04-28T03:03:21.558Z,1.90
2023-04-28T03:08:26.068Z,1.80
2023-04-28T03:13:30.135Z,1.73
2023-04-28T03:18:33.632Z,1.75
2023-04-28T03:23:37.005Z,1.73
2023-04-28T03:28:39.831Z,1.72
2023-04-28T03:33:45.705Z,1.75
2023-04-28T03:38:48.671Z,1.80
2023-04-28T03:43:53.379Z,1.80
2023-04-28T03:48:56.312Z,1.83
2023-04-28T03:53:59.419Z,1.85
2023-04-28T03:59:02.553Z,1.85
2023-04-28T04:04:05.769Z,1.92
2023-04-28T04:09:09.106Z,2.07
2023-04-28T04:14:12.036Z,2.25
2023-04-28T04:19:15.064Z,2.47
2023-04-28T04:24:18.223Z,2.68
2023-04-28T04:29:21.702Z,2.85
2023-04-28T04:34:24.614Z,3.11
2023-04-28T04:39:27.663Z,3.35
2023-04-28T04:44:30.673Z,3.60
2023-04-28T04:49:33.773Z,3.79
2023-04-28T04:54:36.743Z,3.95
2023-04-28T04:59:39.778Z,4.09
2023-04-28T05:04:42.816Z,4.28
2023-04-28T05:09:45.747Z,4.53
2023-04-28T05:14:48.740Z,4.78
2023-04-28T05:19:52.164Z,5.03
2023-04-28T05:24:55.128Z,5.19
2023-04-28T05:30:00.011Z,5.36
2023-04-28T05:35:03.320Z,5.59
2023-04-28T05:40:08.013Z,5.82
2023-04-28T05:45:11.896Z,6.02
2023-04-28T05:50:14.885Z,6.25
2023-04-28T05:55:18.387Z,6.39
2023-04-28T06:00:22.297Z,6.70
2023-04-28T06:05:26.942Z,6.96
2023-04-28T06:10:30.117Z,7.18
2023-04-28T06:15:33.984Z,7.34
2023-04-28T06:20:37.214Z,7.55
2023-04-28T06:25:40.440Z,7.79
2023-04-28T06:30:43.429Z,7.99
2023-04-28T06:35:46.487Z,8.28
2023-04-28T06:40:49.476Z,8.63
2023-04-28T06:45:52.479Z,8.81
2023-04-28T06:50:55.569Z,9.03
2023-04-28T06:55:58.548Z,9.20
2023-04-28T07:01:04.032Z,9.32
2023-04-28T07:06:07.322Z,9.68
2023-04-28T07:11:10.389Z,9.96
2023-04-28T07:16:13.482Z,10.17
2023-04-28T07:21:17.859Z,10.39
2023-04-28T07:26:21.314Z,10.70
2023-04-28T07:31:26.254Z,10.99
2023-04-28T07:36:29.261Z,11.28
2023-04-28T07:41:39.712Z,11.65
2023-04-28T07:46:42.972Z,11.77
2023-04-28T07:51:46.701Z,11.76
2023-04-28T07:56:53.504Z,11.94
2023-04-28T08:01:56.827Z,12.04
2023-04-28T08:07:00.967Z,12.16
2023-04-28T08:12:04.179Z,12.41
2023-04-28T08:17:06.914Z,12.82
2023-04-28T08:22:09.826Z,13.06
2023-04-28T08:27:13.038Z,13.33
2023-04-28T08:32:16.358Z,13.36
2023-04-28T08:37:19.708Z,13.66
2023-04-28T08:42:22.802Z,13.94
2023-04-28T08:47:36.935Z,14.30
2023-04-28T08:52:42.696Z,14.66
2023-04-28T08:57:49.515Z,14.98
2023-04-28T09:02:52.941Z,15.37
2023-04-28T09:07:56.430Z,15.58
2023-04-28T09:12:59.444Z,15.91
2023-04-28T09:18:05.158Z,16.09
2023-04-28T09:23:22.395Z,16.07
2023-04-28T09:28:25.899Z,16.09
2023-04-28T09:33:28.944Z,15.93
2023-04-28T09:38:32.045Z,16.17
2023-04-28T09:43:36.101Z,16.46
2023-04-28T09:48:39.323Z,16.44
2023-04-28T09:53:42.413Z,16.48
2023-04-28T09:58:48.158Z,16.64
2023-04-28T10:03:53.329Z,16.73
2023-04-28T10:08:58.847Z,16.88
2023-04-28T10:14:02.509Z,16.90
2023-04-28T10:19:05.854Z,16.72
2023-04-28T10:24:18.375Z,16.87
2023-04-28T10:29:27.951Z,17.34
2023-04-28T10:34:31.509Z,17.48
2023-04-28T10:39:35.175Z,17.57
2023-04-28T10:44:43.999Z,17.50
2023-04-28T10:49:58.733Z,17.61
2023-04-28T10:55:36.817Z,17.34
2023-04-28T11:00:41.054Z,17.42
2023-04-28T11:06:29.029Z,17.45
2023-04-28T11:11:36.425Z,17.42
2023-04-28T11:17:03.710Z,17.46
2023-04-28T11:22:14.099Z,17.41
2023-04-28T11:27:28.077Z,17.17
2023-04-28T11:32:34.078Z,17.09
2023-04-28T11:37:37.127Z,16.95
2023-04-28T11:42:49.067Z,16.87
2023-04-28T11:47:52.282Z,16.80
2023-04-28T11:52:55.220Z,16.93
2023-04-28T11:58:27.940Z,17.27
2023-04-28T12:03:31.066Z,17.56
2023-04-28T12:08:34.275Z,17.33
2023-04-28T12:13:38.550Z,17.09
2023-04-28T12:19:02.664Z,17.13
2023-04-28T12:24:20.840Z,17.04
2023-04-28T12:29:41.075Z,16.77
2023-04-28T12:34:46.938Z,16.58
2023-04-28T12:39:50.103Z,16.65
2023-04-28T12:44:53.090Z,16.82
2023-04-28T12:49:56.545Z,17.12
2023-04-28T12:55:00.473Z,17.53
2023-04-28T13:00:04.304Z,17.88
2023-04-28T13:05:10.105Z,17.99
2023-04-28T13:10:13.820Z,17.87
2023-04-28T13:15:17.132Z,17.80
2023-04-28T13:20:20.201Z,17.77
2023-04-28T13:25:23.491Z,18.00
2023-04-28T13:30:27.837Z,18.07
2023-04-28T13:35:30.822Z,18.05
2023-04-28T13:40:35.013Z,18.06
2023-04-28T13:45:37.996Z,18.24
2023-04-28T13:50:41.024Z,18.18
2023-04-28T13:55:44.413Z,18.15
2023-04-28T14:00:47.409Z,18.30
2023-04-28T14:05:56.358Z,18.50
2023-04-28T14:10:59.428Z,18.43
2023-04-28T14:16:02.674Z,18.44
2023-04-28T14:21:08.429Z,18.50
2023-04-28T14:26:11.777Z,18.24
2023-04-28T14:31:14.796Z,18.04
2023-04-28T14:36:17.807Z,17.81
2023-04-28T14:41:21.182Z,17.61
2023-04-28T14:46:24.378Z,17.32
2023-04-28T14:51:27.938Z,17.10
2023-04-28T14:56:32.685Z,17.00
2023-04-28T15:01:36.833Z,16.85
2023-04-28T15:06:40.196Z,16.78
2023-04-28T15:11:43.288Z,16.71
2023-04-28T15:16:47.957Z,16.73
2023-04-28T15:21:51.028Z,16.71
2023-04-28T15:26:54.377Z,16.70
2023-04-28T15:31:58.087Z,16.63
2023-04-28T15:37:01.745Z,16.59
2023-04-28T15:42:05.252Z,16.46
2023-04-28T15:47:09.040Z,16.39
2023-04-28T15:52:13.030Z,16.30
2023-04-28T15:57:16.091Z,16.22
2023-04-28T16:02:21.456Z,16.19
2023-04-28T16:07:24.576Z,16.17
2023-04-28T16:12:27.405Z,16.10
2023-04-28T16:17:31.127Z,16.05
2023-04-28T16:22:35.486Z,16.01
2023-04-28T16:27:40.636Z,15.98
2023-04-28T16:32:43.821Z,15.96
2023-04-28T16:37:47.142Z,15.88
2023-04-28T16:42:50.051Z,15.83
2023-04-28T16:47:53.113Z,15.75
2023-04-28T16:52:56.321Z,15.69
2023-04-28T16:58:00.015Z,15.62
2023-04-28T17:03:03.154Z,15.51
2023-04-28T17:08:06.396Z,15.39
2023-04-28T17:13:10.223Z,15.33
2023-04-28T17:18:13.222Z,15.26
2023-04-28T17:23:16.196Z,15.23
2023-04-28T17:28:19.126Z,15.17
2023-04-28T17:33:22.655Z,15.13
2023-04-28T17:38:25.732Z,15.08
2023-04-28T17:43:29.512Z,15.01
2023-04-28T17:48:32.816Z,14.93
2023-04-28T17:53:37.503Z,14.86
2023-04-28T17:58:40.837Z,14.79
2023-04-28T18:03:43.683Z,14.69
2023-04-28T18:08:47.249Z,14.59
2023-04-28T18:13:50.515Z,14.52
2023-04-28T18:18:53.644Z,14.43
2023-04-28T18:23:56.529Z,14.30
2023-04-28T18:28:59.836Z,14.15
2023-04-28T18:34:04.080Z,14.01
2023-04-28T18:39:09.034Z,13.87
2023-04-28T18:44:14.057Z,13.77
2023-04-28T18:49:17.124Z,13.60
2023-04-28T18:54:20.216Z,13.51
2023-04-28T18:59:23.507Z,13.39
2023-04-28T19:04:26.778Z,13.27
2023-04-28T19:09:29.783Z,13.15
2023-04-28T19:14:33.987Z,13.05
2023-04-28T19:19:37.481Z,12.94
2023-04-28T19:24:40.549Z,12.81
2023-04-28T19:29:43.616Z,12.66
2023-04-28T19:34:48.306Z,12.57
2023-04-28T19:39:52.026Z,12.49
2023-04-28T19:44:58.062Z,12.38
2023-04-28T19:50:01.496Z,12.31
2023-04-28T19:55:04.845Z,12.21
2023-04-28T20:00:08.928Z,12.17
2023-04-28T20:05:12.800Z,12.09
2023-04-28T20:10:15.776Z,11.98
2023-04-28T20:15:19.421Z,11.92
2023-04-28T20:20:23.511Z,11.87
2023-04-28T20:25:27.850Z,11.81
2023-04-28T20:30:30.886Z,11.80
2023-04-28T20:35:34.316Z,11.86
2023-04-28T20:40:37.587Z,11.88
2023-04-28T20:45:42.325Z,11.90
2023-04-28T20:50:45.901Z,11.93
2023-04-28T20:55:50.253Z,11.94
2023-04-28T21:00:53.435Z,11.97
2023-04-28T21:05:56.490Z,11.92
2023-04-28T21:10:59.463Z,11.87
2023-04-28T21:16:02.208Z,11.80
2023-04-28T21:21:05.264Z,11.72
2023-04-28T21:26:08.692Z,11.69
2023-04-28T21:31:11.646Z,11.62
2023-04-28T21:36:15.776Z,11.58
2023-04-28T21:41:18.830Z,11.52
2023-04-28T21:46:21.925Z,11.43
2023-04-28T21:51:25.262Z,11.37
2023-04-28T21:56:28.953Z,11.29
2023-04-28T22:01:32.465Z,11.20
2023-04-28T22:06:36.172Z,11.10
2023-04-28T22:11:39.197Z,11.01
2023-04-28T22:16:42.389Z,10.92
2023-04-28T22:21:45.426Z,10.87
2023-04-28T22:26:48.407Z,10.83
2023-04-28T22:31:52.518Z,10.80
2023-04-28T22:36:55.506Z,10.74
2023-04-28T22:41:58.578Z,10.70
2023-04-28T22:47:02.497Z,10.65
2023-04-28T22:52:23.382Z,10.64
2023-04-28T22:57:26.542Z,10.62
2023-04-28T23:02:29.923Z,10.55
2023-04-28T23:07:32.819Z,10.56
2023-04-28T23:12:35.829Z,10.54
2023-04-28T23:17:38.924Z,10.50
2023-04-28T23:22:41.915Z,10.43
2023-04-28T23:27:44.938Z,10.41
2023-04-28T23:33:05.899Z,10.40
2023-04-28T23:38:27.154Z,10.35
2023-04-28T23:43:30.620Z,10.37
2023-04-28T23:48:51.679Z,10.37
2023-04-28T23:53:54.857Z,10.35
2023-04-28T23:58:57.892Z,10.30
